Time;durP1;ratioP1;P1;durP2;ratioP2;P2;SDS_P1;SDS_P2;PMS_P1;PMS_P2;Temp;Humidity;BMP_temperature;BMP_pressure;BME280_temperature;BME280_humidity;BME280_pressure;Samples;Min_cycle;Max_cycle;Signal;HPM_P1;HPM_P2
2023/08/21 00:00:40;;;;;;;7.60;2.17;;;16.30;99.90;;;;;;5045968;28;20450;-80
2023/08/21 00:03:07;;;;;;;14.02;2.08;;;16.20;99.90;;;;;;5049653;28;20036;-80
2023/08/21 00:05:34;;;;;;;6.50;1.77;;;16.20;99.90;;;;;;5036964;28;20073;-80
2023/08/21 00:08:00;;;;;;;7.00;1.73;;;16.10;99.90;;;;;;5040128;28;20098;-79
2023/08/21 00:10:27;;;;;;;10.13;2.45;;;16.10;99.90;;;;;;5049337;28;20386;-79
2023/08/21 00:12:54;;;;;;;6.28;1.50;;;16.10;99.90;;;;;;5076442;28;20128;-80
2023/08/21 00:15:21;;;;;;;5.30;1.70;;;16.10;99.90;;;;;;5068980;28;20106;-80
2023/08/21 00:17:48;;;;;;;10.07;1.90;;;16.00;99.90;;;;;;5052709;28;20048;-80
2023/08/21 00:20:14;;;;;;;7.25;2.10;;;16.00;99.90;;;;;;5063098;28;20045;-80
2023/08/21 00:22:41;;;;;;;6.22;1.80;;;15.90;99.90;;;;;;5031982;28;20152;-79
2023/08/21 00:25:07;;;;;;;6.78;1.60;;;15.90;99.90;;;;;;5049021;28;20121;-79
2023/08/21 00:27:34;;;;;;;4.60;1.80;;;15.90;99.90;;;;;;5010547;28;20049;-79
2023/08/21 00:30:01;;;;;;;6.30;2.03;;;15.90;99.90;;;;;;5018761;28;20060;-79
2023/08/21 00:32:28;;;;;;;7.43;1.58;;;15.80;99.90;;;;;;5052314;28;20125;-79
2023/08/21 00:34:55;;;;;;;7.85;1.70;;;15.80;99.90;;;;;;5041149;28;20037;-80
2023/08/21 00:37:21;;;;;;;10.18;1.75;;;15.80;99.90;;;;;;5024525;28;20063;-80
2023/08/21 00:39:48;;;;;;;5.25;1.67;;;15.80;99.90;;;;;;5027861;28;20376;-79
2023/08/21 00:42:15;;;;;;;5.03;2.08;;;15.80;99.90;;;;;;5027027;28;20453;-79
2023/08/21 00:44:41;;;;;;;5.20;1.90;;;15.70;99.90;;;;;;5051289;28;20033;-80
2023/08/21 00:47:09;;;;;;;4.78;1.48;;;15.70;99.90;;;;;;5052147;28;20045;-79
2023/08/21 00:49:38;;;;;;;6.55;1.52;;;15.70;99.90;;;;;;5046469;28;20045;-80
2023/08/21 00:52:05;;;;;;;4.13;1.60;;;15.60;99.90;;;;;;5019828;28;20061;-79
2023/08/21 00:54:31;;;;;;;5.78;1.95;;;15.60;99.90;;;;;;5051071;28;20037;-80
2023/08/21 00:56:58;;;;;;;11.55;1.92;;;15.70;99.90;;;;;;5056392;28;20106;-80
2023/08/21 00:59:25;;;;;;;6.43;2.00;;;15.60;99.90;;;;;;5021131;28;20135;-81
2023/08/21 01:01:51;;;;;;;5.53;1.75;;;15.50;99.90;;;;;;5054911;28;20044;-79
2023/08/21 01:04:19;;;;;;;6.65;1.90;;;15.50;99.90;;;;;;5048055;28;20372;-79
2023/08/21 01:06:45;;;;;;;6.47;1.88;;;15.50;99.90;;;;;;5060711;28;20050;-79
2023/08/21 01:09:12;;;;;;;7.45;2.05;;;15.40;99.90;;;;;;5046151;28;20056;-80
2023/08/21 01:11:39;;;;;;;6.63;1.70;;;15.40;99.90;;;;;;5047499;28;20338;-79
2023/08/21 01:14:06;;;;;;;5.50;1.70;;;15.40;99.90;;;;;;5029963;28;20102;-80
2023/08/21 01:16:32;;;;;;;7.15;1.63;;;15.30;99.90;;;;;;5056488;28;20449;-80
2023/08/21 01:18:59;;;;;;;9.38;1.83;;;15.30;99.90;;;;;;5056253;28;20364;-80
2023/08/21 01:21:26;;;;;;;6.53;1.70;;;15.30;99.90;;;;;;5033779;28;20131;-79
2023/08/21 01:23:53;;;;;;;4.90;1.60;;;15.30;99.90;;;;;;5031613;28;20077;-79
2023/08/21 01:26:19;;;;;;;3.95;1.65;;;15.20;99.90;;;;;;5035784;28;20072;-79
2023/08/21 01:28:46;;;;;;;8.20;2.03;;;15.20;99.90;;;;;;5042347;28;20052;-79
2023/08/21 01:31:13;;;;;;;7.85;1.70;;;15.20;99.90;;;;;;5029611;28;20061;-80
2023/08/21 01:33:39;;;;;;;7.38;2.17;;;15.10;99.90;;;;;;5062759;28;20040;-79
2023/08/21 01:36:06;;;;;;;5.03;1.58;;;15.10;99.90;;;;;;5042627;28;20051;-80
2023/08/21 01:38:35;;;;;;;5.53;1.65;;;15.10;99.90;;;;;;5051318;28;20053;-80
2023/08/21 01:41:02;;;;;;;5.28;1.58;;;15.10;99.90;;;;;;5059752;28;20067;-79
2023/08/21 01:43:28;;;;;;;6.65;1.65;;;15.10;99.90;;;;;;5052016;28;20063;-79
2023/08/21 01:45:55;;;;;;;8.20;2.03;;;15.00;99.90;;;;;;5062165;28;20040;-79
2023/08/21 01:48:22;;;;;;;9.70;1.90;;;15.00;99.90;;;;;;5084396;28;20359;-78
2023/08/21 01:50:49;;;;;;;8.02;1.70;;;15.00;99.90;;;;;;5070484;28;20142;-80
2023/08/21 01:53:15;;;;;;;5.65;1.70;;;15.00;99.90;;;;;;5082707;28;20035;-78
2023/08/21 01:55:43;;;;;;;10.27;2.55;;;15.00;99.90;;;;;;5066369;28;20041;-80
2023/08/21 01:58:10;;;;;;;5.40;1.88;;;14.90;99.90;;;;;;5087779;28;20040;-79
2023/08/21 02:00:38;;;;;;;6.78;2.00;;;14.90;99.90;;;;;;5086402;28;20138;-79
2023/08/21 02:03:04;;;;;;;7.03;1.85;;;14.90;99.90;;;;;;5085714;28;20072;-79
2023/08/21 02:05:31;;;;;;;5.03;1.58;;;14.90;99.90;;;;;;5076758;28;20044;-78
2023/08/21 02:07:59;;;;;;;5.40;1.75;;;14.90;99.90;;;;;;5079591;28;20032;-78
2023/08/21 02:10:26;;;;;;;6.43;1.70;;;14.90;99.90;;;;;;5084862;28;20075;-79
2023/08/21 02:12:54;;;;;;;5.80;1.70;;;14.90;99.90;;;;;;5072625;28;20044;-80
2023/08/21 02:15:21;;;;;;;10.05;2.00;;;14.90;99.90;;;;;;5062100;28;20068;-80
2023/08/21 02:17:49;;;;;;;4.50;1.70;;;14.90;99.90;;;;;;5088145;28;20413;-78
2023/08/21 02:20:16;;;;;;;4.15;1.45;;;14.90;99.90;;;;;;5053166;28;20033;-79
2023/08/21 02:22:43;;;;;;;5.32;1.88;;;14.80;99.90;;;;;;5054851;28;20130;-80
2023/08/21 02:25:09;;;;;;;7.93;1.75;;;14.80;99.90;;;;;;5064184;28;20463;-79
2023/08/21 02:27:37;;;;;;;4.40;1.83;;;14.80;99.90;;;;;;5078337;28;20455;-79
2023/08/21 02:30:04;;;;;;;9.32;2.22;;;14.70;99.90;;;;;;5074303;28;20032;-78
2023/08/21 02:32:31;;;;;;;4.32;1.58;;;14.70;99.90;;;;;;5082725;28;20528;-80
2023/08/21 02:34:59;;;;;;;5.47;1.80;;;14.70;99.90;;;;;;5076680;28;20463;-80
2023/08/21 02:37:26;;;;;;;6.35;1.90;;;14.70;99.90;;;;;;5076732;28;20429;-80
2023/08/21 02:39:54;;;;;;;7.55;1.98;;;14.70;99.90;;;;;;5084260;28;20062;-80
2023/08/21 02:42:21;;;;;;;5.97;2.20;;;14.70;99.90;;;;;;5088430;28;20123;-79
2023/08/21 02:44:47;;;;;;;7.18;2.05;;;14.70;99.90;;;;;;5017289;28;20123;-79
2023/08/21 02:47:14;;;;;;;13.30;2.90;;;14.60;99.90;;;;;;5016221;28;20063;-79
2023/08/21 02:49:41;;;;;;;4.40;1.80;;;14.60;99.90;;;;;;5034608;28;20103;-79
2023/08/21 02:52:08;;;;;;;6.40;2.40;;;14.60;99.90;;;;;;5034687;28;20639;-79
2023/08/21 02:54:35;;;;;;;8.60;2.50;;;14.60;99.90;;;;;;5050585;28;20120;-80
2023/08/21 02:57:02;;;;;;;6.95;2.08;;;14.50;99.90;;;;;;5052344;28;20073;-79
2023/08/21 02:59:31;;;;;;;5.70;2.13;;;14.50;99.90;;;;;;5042332;28;20152;-79
2023/08/21 03:01:57;;;;;;;6.20;1.73;;;14.50;99.90;;;;;;5033619;28;20049;-80
2023/08/21 03:04:24;;;;;;;8.98;2.55;;;14.40;99.90;;;;;;5039673;28;20072;-78
2023/08/21 03:06:51;;;;;;;4.50;1.98;;;14.40;99.90;;;;;;5054624;28;20041;-79
2023/08/21 03:09:18;;;;;;;5.53;1.98;;;14.40;99.90;;;;;;5060625;28;20491;-79
2023/08/21 03:11:44;;;;;;;8.80;2.53;;;14.40;99.90;;;;;;5049829;28;20056;-80
2023/08/21 03:14:11;;;;;;;6.57;2.33;;;14.40;99.90;;;;;;5050653;28;20099;-78
2023/08/21 03:16:39;;;;;;;11.70;2.50;;;14.50;99.90;;;;;;5043658;28;20110;-78
2023/08/21 03:19:05;;;;;;;14.13;2.70;;;14.50;99.90;;;;;;5071738;28;20158;-79
2023/08/21 03:21:33;;;;;;;7.53;2.83;;;14.50;99.90;;;;;;5028494;28;20399;-79
2023/08/21 03:24:00;;;;;;;8.30;3.05;;;14.50;99.90;;;;;;5060157;28;20044;-79
2023/08/21 03:26:31;;;;;;;7.13;2.60;;;14.50;99.90;;;;;;5061766;28;20115;-79
2023/08/21 03:28:57;;;;;;;7.13;2.92;;;14.50;99.90;;;;;;5049209;28;20170;-79
2023/08/21 03:31:24;;;;;;;12.20;2.88;;;14.60;99.90;;;;;;5053282;28;20116;-79
2023/08/21 03:33:51;;;;;;;10.98;2.88;;;14.50;99.90;;;;;;5043442;28;20034;-80
2023/08/21 03:36:19;;;;;;;9.40;3.42;;;14.60;99.90;;;;;;5041276;28;20048;-79
2023/08/21 03:38:46;;;;;;;10.45;3.53;;;14.50;99.90;;;;;;5033315;28;20616;-80
2023/08/21 03:41:13;;;;;;;8.07;2.80;;;14.50;99.90;;;;;;5047071;28;20072;-79
2023/08/21 03:43:40;;;;;;;7.93;3.03;;;14.60;99.90;;;;;;5078005;28;20055;-80
2023/08/21 03:46:07;;;;;;;9.52;3.20;;;14.70;99.90;;;;;;5071093;28;20097;-79
2023/08/21 03:48:35;;;;;;;10.25;3.17;;;14.80;99.90;;;;;;5083457;28;20109;-80
2023/08/21 03:51:02;;;;;;;9.80;3.28;;;14.90;99.90;;;;;;5068417;28;20060;-79
2023/08/21 03:53:30;;;;;;;11.95;3.28;;;15.00;99.90;;;;;;5089578;28;20028;-79
2023/08/21 03:55:56;;;;;;;12.10;3.25;;;15.20;99.90;;;;;;5064292;28;20394;-80
2023/08/21 03:58:25;;;;;;;7.80;3.03;;;15.30;99.90;;;;;;5077771;28;20422;-78
2023/08/21 04:00:52;;;;;;;9.88;3.30;;;15.30;99.90;;;;;;5099300;28;20048;-79
2023/08/21 04:03:19;;;;;;;8.57;2.90;;;15.40;99.90;;;;;;5093415;28;20063;-80
2023/08/21 04:05:45;;;;;;;16.85;3.50;;;15.50;99.90;;;;;;5090433;28;20052;-80
2023/08/21 04:08:13;;;;;;;15.32;4.18;;;15.50;99.90;;;;;;5057756;28;20112;-80
2023/08/21 04:10:41;;;;;;;9.20;3.25;;;15.50;99.90;;;;;;5067917;28;20040;-80
2023/08/21 04:13:08;;;;;;;10.20;3.47;;;15.50;99.90;;;;;;5069338;28;20045;-80
2023/08/21 04:15:35;;;;;;;10.05;3.15;;;15.50;99.90;;;;;;5067419;28;20066;-80
2023/08/21 04:18:05;;;;;;;9.82;3.60;;;15.60;99.90;;;;;;5062098;28;20468;-80
2023/08/21 04:20:32;;;;;;;12.57;3.40;;;15.60;99.90;;;;;;5084627;28;20063;-80
2023/08/21 04:22:59;;;;;;;13.75;3.15;;;15.60;99.90;;;;;;5096590;28;20097;-80
2023/08/21 04:25:26;;;;;;;13.55;3.75;;;15.60;99.90;;;;;;5097472;28;20371;-80
2023/08/21 04:27:53;;;;;;;11.10;3.45;;;15.60;99.90;;;;;;5081705;28;20440;-80
2023/08/21 04:30:20;;;;;;;12.93;3.90;;;15.70;99.90;;;;;;5091626;28;20040;-80
2023/08/21 04:32:47;;;;;;;10.90;3.30;;;15.80;99.90;;;;;;5081486;28;20115;-80
2023/08/21 04:35:15;;;;;;;12.23;3.58;;;15.80;99.90;;;;;;5056023;28;20041;-80
2023/08/21 04:37:44;;;;;;;11.07;3.45;;;15.80;99.90;;;;;;5085508;28;20044;-80
2023/08/21 04:40:12;;;;;;;15.52;3.88;;;15.80;99.90;;;;;;5082304;28;20044;-80
2023/08/21 04:42:39;;;;;;;9.73;3.30;;;15.80;99.90;;;;;;5075862;28;20080;-80
2023/08/21 04:45:06;;;;;;;12.73;3.20;;;15.70;99.90;;;;;;5064438;28;20479;-81
2023/08/21 04:47:36;;;;;;;13.80;4.10;;;15.70;99.90;;;;;;5061901;28;20044;-80
2023/08/21 04:50:03;;;;;;;10.93;4.00;;;15.70;99.90;;;;;;5085754;28;20045;-80
2023/08/21 04:52:29;;;;;;;12.60;3.60;;;15.60;99.90;;;;;;5062044;28;20044;-79
2023/08/21 04:54:56;;;;;;;12.10;3.65;;;15.60;99.90;;;;;;5070952;28;20051;-80
2023/08/21 04:57:24;;;;;;;14.35;3.58;;;15.70;99.90;;;;;;5095483;28;20105;-80
2023/08/21 04:59:51;;;;;;;10.13;3.45;;;15.60;99.90;;;;;;5081832;28;20060;-79
2023/08/21 05:02:19;;;;;;;10.43;3.45;;;15.60;99.90;;;;;;5055708;28;20090;-80
2023/08/21 05:04:48;;;;;;;9.20;3.00;;;15.70;99.90;;;;;;5065885;28;20105;-80
2023/08/21 05:07:15;;;;;;;10.70;3.50;;;15.70;99.90;;;;;;5072305;28;20372;-79
2023/08/21 05:09:42;;;;;;;7.20;2.83;;;15.70;99.90;;;;;;5055522;28;20371;-80
2023/08/21 05:12:10;;;;;;;12.10;3.58;;;15.70;99.90;;;;;;5075731;28;20036;-79
2023/08/21 05:14:38;;;;;;;12.55;2.90;;;15.80;99.90;;;;;;5084606;28;20068;-79
2023/08/21 05:17:05;;;;;;;12.10;3.03;;;15.80;99.90;;;;;;5095985;28;20036;-79
2023/08/21 05:19:31;;;;;;;10.48;2.75;;;15.90;99.90;;;;;;5080990;28;20430;-80
2023/08/21 05:21:58;;;;;;;7.25;2.95;;;15.90;99.90;;;;;;5088786;28;20049;-79
2023/08/21 05:24:25;;;;;;;11.98;2.90;;;15.90;99.90;;;;;;5074981;28;20464;-79
2023/08/21 05:27:00;;;;;;;8.10;3.25;;;15.90;99.90;;;;;;5069948;28;20052;-80
2023/08/21 05:29:27;;;;;;;11.57;3.55;;;16.00;99.90;;;;;;5074751;28;20041;-80
2023/08/21 05:31:54;;;;;;;10.68;2.80;;;16.00;99.90;;;;;;5089423;28;20462;-80
2023/08/21 05:34:21;;;;;;;10.20;3.25;;;16.00;99.90;;;;;;5071047;28;20036;-80
2023/08/21 05:36:50;;;;;;;15.35;3.17;;;16.00;99.90;;;;;;5088109;28;20139;-79
2023/08/21 05:39:19;;;;;;;9.75;3.05;;;16.00;99.90;;;;;;5089391;28;20132;-80
2023/08/21 05:41:46;;;;;;;10.05;3.17;;;16.00;99.90;;;;;;5074813;28;20071;-80
2023/08/21 05:44:13;;;;;;;11.05;3.33;;;16.10;99.90;;;;;;5074878;28;20056;-80
2023/08/21 05:46:40;;;;;;;13.30;3.72;;;16.10;99.90;;;;;;5073788;28;20041;-80
2023/08/21 05:49:07;;;;;;;12.00;3.42;;;16.10;99.90;;;;;;5076540;28;20067;-79
2023/08/21 05:51:34;;;;;;;13.48;3.10;;;16.00;99.90;;;;;;5078948;28;20102;-80
2023/08/21 05:54:01;;;;;;;9.50;3.10;;;16.00;99.90;;;;;;5068606;28;20037;-80
2023/08/21 05:56:28;;;;;;;11.13;3.22;;;16.00;99.90;;;;;;5054429;28;20049;-80
2023/08/21 05:58:55;;;;;;;8.52;2.92;;;16.00;99.90;;;;;;5067119;28;20131;-81
2023/08/21 06:01:24;;;;;;;8.88;3.00;;;16.00;99.90;;;;;;5082430;28;20049;-80
2023/08/21 06:03:51;;;;;;;7.68;2.95;;;16.00;99.90;;;;;;5054325;28;20041;-81
2023/08/21 06:06:29;;;;;;;12.63;3.97;;;16.10;99.90;;;;;;5091630;28;20140;-80
2023/08/21 06:08:56;;;;;;;9.35;3.47;;;16.10;99.90;;;;;;5071518;28;20037;-81
2023/08/21 06:11:22;;;;;;;9.85;3.30;;;16.00;99.90;;;;;;5086160;28;20040;-80
2023/08/21 06:13:49;;;;;;;8.52;3.00;;;16.00;99.90;;;;;;5070023;28;20047;-80
2023/08/21 06:16:16;;;;;;;16.02;3.75;;;16.00;99.90;;;;;;5084332;28;20063;-80
2023/08/21 06:18:44;;;;;;;8.95;3.00;;;15.90;99.90;;;;;;5073792;28;20122;-81
2023/08/21 06:21:11;;;;;;;9.95;3.13;;;15.80;99.90;;;;;;5059846;28;20844;-80
2023/08/21 06:23:38;;;;;;;11.20;3.22;;;15.80;99.90;;;;;;5095207;28;20050;-80
2023/08/21 06:26:05;;;;;;;7.03;3.30;;;15.80;99.90;;;;;;5093479;28;20040;-81
2023/08/21 06:28:32;;;;;;;11.82;3.10;;;15.80;99.90;;;;;;5060827;28;20084;-80
2023/08/21 06:30:59;;;;;;;7.95;3.55;;;16.00;99.90;;;;;;5080607;28;20466;-79
2023/08/21 06:33:26;;;;;;;9.70;2.80;;;16.00;99.90;;;;;;5093156;28;20035;-80
2023/08/21 06:35:53;;;;;;;9.63;2.90;;;16.10;99.90;;;;;;5083434;28;20041;-79
2023/08/21 06:38:23;;;;;;;11.05;3.15;;;16.10;99.90;;;;;;5053869;28;20049;-79
2023/08/21 06:40:50;;;;;;;8.18;2.50;;;16.00;99.90;;;;;;5081646;28;20147;-80
2023/08/21 06:43:17;;;;;;;9.23;2.78;;;16.00;99.90;;;;;;5066083;28;20052;-80
2023/08/21 06:45:46;;;;;;;8.32;3.05;;;16.00;99.90;;;;;;5042891;28;20069;-79
2023/08/21 06:48:13;;;;;;;8.85;3.20;;;16.10;99.90;;;;;;5056504;28;20093;-78
2023/08/21 06:50:40;;;;;;;7.13;2.97;;;16.10;99.90;;;;;;5059622;28;20119;-81
2023/08/21 06:53:07;;;;;;;8.52;2.88;;;16.10;99.90;;;;;;5030383;28;20047;-79
2023/08/21 06:55:33;;;;;;;8.73;2.90;;;16.10;99.90;;;;;;5074608;28;20127;-80
2023/08/21 06:58:02;;;;;;;6.90;2.53;;;16.10;99.90;;;;;;5046293;28;20045;-80
2023/08/21 07:00:29;;;;;;;10.10;2.80;;;16.20;99.90;;;;;;5049960;28;20442;-79
2023/08/21 07:02:56;;;;;;;8.10;2.45;;;16.30;99.90;;;;;;5041729;28;20036;-80
2023/08/21 07:05:22;;;;;;;10.80;3.08;;;16.20;99.90;;;;;;5046608;28;20401;-79
2023/08/21 07:07:49;;;;;;;8.70;3.03;;;16.20;99.90;;;;;;5051719;28;20511;-79
2023/08/21 07:10:16;;;;;;;9.32;3.10;;;16.30;99.90;;;;;;5042584;28;20041;-81
2023/08/21 07:12:43;;;;;;;8.55;2.75;;;16.30;99.90;;;;;;5053597;28;20079;-80
2023/08/21 07:15:09;;;;;;;10.57;2.90;;;16.30;99.90;;;;;;5047494;28;20131;-80
2023/08/21 07:17:36;;;;;;;7.85;3.03;;;16.30;99.90;;;;;;5061654;28;20076;-80
2023/08/21 07:20:03;;;;;;;7.18;2.63;;;16.30;99.90;;;;;;5026579;28;20105;-79
2023/08/21 07:22:30;;;;;;;10.00;2.92;;;16.40;99.90;;;;;;5063247;28;20041;-79
2023/08/21 07:24:57;;;;;;;9.82;3.20;;;16.50;99.90;;;;;;5068724;28;20040;-80
2023/08/21 07:27:26;;;;;;;8.73;2.70;;;16.50;99.90;;;;;;5048031;28;20380;-80
2023/08/21 07:29:52;;;;;;;10.60;3.47;;;16.60;99.90;;;;;;5028550;28;20132;-80
2023/08/21 07:32:19;;;;;;;7.95;2.20;;;16.60;99.90;;;;;;5068835;28;20112;-80
2023/08/21 07:34:46;;;;;;;9.35;2.80;;;16.60;99.90;;;;;;5043365;28;20068;-81
2023/08/21 07:37:13;;;;;;;10.32;2.70;;;16.70;99.90;;;;;;5035672;28;20087;-80
2023/08/21 07:39:39;;;;;;;12.10;2.75;;;16.70;99.90;;;;;;5007810;28;20110;-80
2023/08/21 07:42:06;;;;;;;7.18;2.58;;;16.80;99.90;;;;;;5056659;28;20087;-80
2023/08/21 07:44:33;;;;;;;5.97;2.17;;;16.80;99.90;;;;;;5064239;28;20057;-80
2023/08/21 07:47:00;;;;;;;11.00;2.70;;;17.00;99.90;;;;;;5075993;28;20044;-80
2023/08/21 07:49:27;;;;;;;11.50;2.67;;;17.00;99.90;;;;;;5063109;28;20115;-79
2023/08/21 07:51:54;;;;;;;10.65;2.42;;;16.90;99.90;;;;;;5070755;28;20071;-79
2023/08/21 07:54:21;;;;;;;8.02;2.50;;;16.90;99.90;;;;;;5062323;28;20041;-79
2023/08/21 07:59:34;;;;;;;12.38;2.50;;;17.20;99.90;;;;;;5064475;28;20068;-84
2023/08/21 08:02:01;;;;;;;8.77;2.55;;;17.30;99.90;;;;;;5056704;28;20033;-83
2023/08/21 08:04:28;;;;;;;8.93;2.35;;;17.30;99.90;;;;;;5067546;28;20143;-84
2023/08/21 08:06:56;;;;;;;7.85;2.30;;;17.20;99.90;;;;;;5063066;28;20059;-84
2023/08/21 08:09:22;;;;;;;10.52;3.10;;;17.30;99.90;;;;;;5060011;28;20037;-82
2023/08/21 08:11:49;;;;;;;9.50;2.45;;;17.30;99.90;;;;;;5070963;28;20117;-84
2023/08/21 08:14:16;;;;;;;12.68;2.80;;;17.40;99.90;;;;;;5065183;28;20135;-84
2023/08/21 08:16:44;;;;;;;9.15;2.85;;;17.40;99.90;;;;;;5064005;28;20158;-81
2023/08/21 08:19:11;;;;;;;9.63;2.28;;;17.50;99.90;;;;;;5064053;28;20072;-84
2023/08/21 08:21:38;;;;;;;6.47;2.33;;;17.50;99.90;;;;;;5059014;28;20037;-83
2023/08/21 08:24:05;;;;;;;11.07;2.20;;;17.50;99.90;;;;;;5064827;28;20472;-80
2023/08/21 08:26:32;;;;;;;10.38;2.75;;;17.50;99.90;;;;;;5064601;28;20047;-82
2023/08/21 08:28:58;;;;;;;10.98;2.72;;;17.50;99.90;;;;;;5066844;28;20039;-82
2023/08/21 08:31:27;;;;;;;8.93;2.58;;;17.50;99.90;;;;;;5076399;28;20049;-82
2023/08/21 08:33:54;;;;;;;9.32;2.80;;;17.40;99.90;;;;;;5069223;28;20079;-83
2023/08/21 08:36:21;;;;;;;6.90;2.10;;;17.40;99.90;;;;;;5056997;28;20037;-81
2023/08/21 08:38:48;;;;;;;9.55;2.00;;;17.40;99.90;;;;;;5084940;28;20078;-79
2023/08/21 08:41:15;;;;;;;5.70;1.90;;;17.50;99.90;;;;;;5063365;28;20123;-80
2023/08/21 08:43:41;;;;;;;8.27;2.00;;;17.60;99.90;;;;;;5077805;28;20157;-78
2023/08/21 08:46:09;;;;;;;7.40;2.10;;;17.70;99.90;;;;;;5036353;28;20047;-78
2023/08/21 08:48:52;;;;;;;7.75;2.38;;;17.80;99.90;;;;;;5117728;27;20346;-80
2023/08/21 08:51:18;;;;;;;7.07;1.73;;;17.80;99.90;;;;;;5094506;28;20044;-81
2023/08/21 08:53:45;;;;;;;7.80;2.17;;;18.00;99.90;;;;;;5099171;28;20131;-81
2023/08/21 08:56:12;;;;;;;7.05;1.80;;;18.20;99.90;;;;;;5078629;28;20066;-81
2023/08/21 08:58:42;;;;;;;8.02;1.70;;;18.40;99.90;;;;;;5112081;28;20093;-81
2023/08/21 09:01:10;;;;;;;9.57;1.77;;;18.20;99.90;;;;;;5111308;28;20101;-81
2023/08/21 09:03:37;;;;;;;8.55;1.80;;;18.10;99.90;;;;;;5075596;28;20059;-82
2023/08/21 09:06:04;;;;;;;5.47;1.42;;;18.10;99.90;;;;;;5111115;28;20132;-82
2023/08/21 09:08:32;;;;;;;8.43;1.80;;;18.30;99.90;;;;;;5112069;28;20044;-81
2023/08/21 09:10:58;;;;;;;5.65;1.60;;;18.50;99.90;;;;;;5094453;28;20035;-81
2023/08/21 09:13:25;;;;;;;5.30;1.70;;;18.50;99.90;;;;;;5093163;28;20079;-82
2023/08/21 09:15:51;;;;;;;4.03;1.50;;;18.60;99.90;;;;;;5114285;28;20036;-82
2023/08/21 09:18:20;;;;;;;7.25;1.60;;;18.90;99.90;;;;;;5093950;28;20093;-82
2023/08/21 09:20:48;;;;;;;7.03;1.55;;;19.00;99.90;;;;;;5099870;28;20127;-82
2023/08/21 09:23:14;;;;;;;7.30;1.77;;;19.20;99.90;;;;;;5091361;28;20063;-83
2023/08/21 09:25:41;;;;;;;5.22;1.30;;;19.30;99.90;;;;;;5073685;28;20127;-83
2023/08/21 09:28:08;;;;;;;7.18;1.77;;;19.30;99.90;;;;;;5083937;28;20076;-82
2023/08/21 09:30:35;;;;;;;5.50;1.50;;;19.40;99.90;;;;;;5065320;28;20040;-82
2023/08/21 09:33:04;;;;;;;5.85;1.52;;;19.50;99.90;;;;;;5099852;28;20103;-83
2023/08/21 09:35:31;;;;;;;4.20;1.40;;;19.60;99.90;;;;;;5079496;28;20436;-82
2023/08/21 09:37:57;;;;;;;8.10;1.75;;;19.80;99.90;;;;;;5073264;28;20465;-83
2023/08/21 09:40:24;;;;;;;6.45;1.73;;;19.90;99.90;;;;;;5104784;28;20058;-83
2023/08/21 09:42:51;;;;;;;4.60;1.80;;;20.00;99.90;;;;;;5093566;28;20058;-83
2023/08/21 09:45:17;;;;;;;5.68;1.55;;;19.70;99.90;;;;;;5093404;28;20135;-83
2023/08/21 09:47:44;;;;;;;4.60;1.65;;;19.80;99.90;;;;;;5099177;28;20062;-83
2023/08/21 09:50:11;;;;;;;3.63;1.42;;;19.60;99.90;;;;;;5072568;28;20036;-83
2023/08/21 09:52:37;;;;;;;4.32;1.40;;;19.90;99.90;;;;;;5069260;28;20041;-83
2023/08/21 09:55:04;;;;;;;4.70;1.50;;;20.20;99.90;;;;;;5073127;28;20127;-84
2023/08/21 09:57:31;;;;;;;4.05;1.38;;;20.60;99.90;;;;;;5068433;28;20066;-85
2023/08/21 09:59:58;;;;;;;8.10;1.70;;;21.10;99.90;;;;;;5067743;28;20044;-84
2023/08/21 10:02:24;;;;;;;6.45;1.70;;;21.40;99.90;;;;;;5059519;28;20446;-87
2023/08/21 10:04:51;;;;;;;8.93;2.60;;;21.70;99.90;;;;;;5077094;28;20127;-82
2023/08/21 10:07:20;;;;;;;5.88;2.20;;;22.00;99.90;;;;;;5076140;28;20050;-83
2023/08/21 10:09:46;;;;;;;6.43;1.92;;;22.20;99.90;;;;;;5059117;28;20548;-82
2023/08/21 10:12:14;;;;;;;7.15;2.63;;;22.40;99.90;;;;;;5076815;28;20032;-82
2023/08/21 10:14:41;;;;;;;5.65;1.90;;;22.40;99.90;;;;;;5058396;28;20480;-82
2023/08/21 10:17:08;;;;;;;6.07;2.03;;;22.40;99.90;;;;;;5059362;28;20050;-81
2023/08/21 10:19:34;;;;;;;6.00;2.17;;;22.60;99.90;;;;;;5067079;28;20045;-81
2023/08/21 10:22:03;;;;;;;5.95;2.35;;;22.90;99.90;;;;;;5058926;28;20041;-83
2023/08/21 10:24:29;;;;;;;6.28;1.98;;;23.20;99.90;;;;;;5047918;28;20115;-83
2023/08/21 10:26:56;;;;;;;5.88;2.42;;;23.40;99.90;;;;;;5073413;28;20048;-83
2023/08/21 10:29:23;;;;;;;6.45;2.17;;;23.50;99.90;;;;;;5039546;28;20048;-82
2023/08/21 10:31:50;;;;;;;6.05;1.98;;;23.50;99.90;;;;;;5073816;28;20064;-82
2023/08/21 10:34:16;;;;;;;6.22;1.98;;;23.60;99.90;;;;;;5041725;28;20045;-84
2023/08/21 10:39:13;;;;;;;8.02;1.90;;;23.30;99.90;;;;;;5058737;28;20056;-81
2023/08/21 10:41:40;;;;;;;5.40;1.60;;;23.40;99.90;;;;;;5041827;28;20151;-82
2023/08/21 10:44:08;;;;;;;6.95;1.63;;;23.50;99.90;;;;;;5059015;28;20094;-82
2023/08/21 10:46:34;;;;;;;6.35;2.00;;;23.80;99.90;;;;;;5058704;28;20376;-82
2023/08/21 10:49:01;;;;;;;5.88;1.90;;;24.50;99.90;;;;;;5058860;28;20114;-83
2023/08/21 10:51:28;;;;;;;5.78;1.70;;;24.60;99.90;;;;;;5042161;28;20049;-83
2023/08/21 10:53:55;;;;;;;6.15;1.88;;;24.60;99.90;;;;;;5057687;28;20068;-83
2023/08/21 10:56:22;;;;;;;6.30;2.05;;;24.30;99.90;;;;;;5076132;28;20036;-81
2023/08/21 10:58:51;;;;;;;6.22;1.80;;;24.80;99.90;;;;;;5058609;28;20412;-82
2023/08/21 11:01:17;;;;;;;5.28;1.58;;;25.20;99.90;;;;;;5041228;28;20045;-84
2023/08/21 11:03:44;;;;;;;7.38;2.05;;;25.60;99.90;;;;;;5042001;28;20036;-84
2023/08/21 11:06:11;;;;;;;8.50;1.90;;;26.00;99.90;;;;;;5057701;28;20054;-84
2023/08/21 11:08:39;;;;;;;7.03;2.00;;;26.20;99.90;;;;;;5058774;28;20069;-83
2023/08/21 11:11:05;;;;;;;8.38;2.08;;;26.50;99.90;;;;;;5040980;28;20451;-83
2023/08/21 11:13:32;;;;;;;5.40;1.73;;;26.90;99.90;;;;;;5074997;28;20051;-85
2023/08/21 11:15:59;;;;;;;5.53;1.70;;;26.90;99.90;;;;;;5075930;28;20116;-83
2023/08/21 11:21:11;;;;;;;5.72;1.60;;;27.80;99.90;;;;;;5062611;28;20110;-84
2023/08/21 11:23:38;;;;;;;7.28;1.98;;;28.00;99.90;;;;;;5076035;28;20044;-83
2023/08/21 11:26:05;;;;;;;7.05;1.90;;;27.50;99.90;;;;;;5057030;28;20052;-83
2023/08/21 11:28:46;;;;;;;6.50;1.83;;;27.30;99.90;;;;;;5058794;28;20041;-84
2023/08/21 11:31:13;;;;;;;7.32;1.98;;;27.40;99.90;;;;;;5038473;28;20033;-81
2023/08/21 11:33:40;;;;;;;4.95;1.42;;;27.70;99.90;;;;;;5051245;28;20049;-82
2023/08/21 11:36:06;;;;;;;7.30;2.00;;;28.00;99.90;;;;;;5062830;28;20037;-82
2023/08/21 11:38:35;;;;;;;7.10;1.48;;;27.70;99.90;;;;;;5075373;28;20485;-82
2023/08/21 11:41:05;;;;;;;5.32;1.67;;;27.90;99.90;;;;;;5056991;28;20139;-82
2023/08/21 11:43:31;;;;;;;5.30;1.40;;;28.60;99.90;;;;;;5045978;28;20051;-82
2023/08/21 11:45:58;;;;;;;4.47;1.60;;;28.50;99.90;;;;;;5054509;28;20041;-83
2023/08/21 11:48:25;;;;;;;6.03;1.48;;;28.50;99.90;;;;;;5065310;28;20113;-82
2023/08/21 11:50:51;;;;;;;6.55;1.95;;;28.60;99.90;;;;;;5075508;28;20043;-81
2023/08/21 11:53:18;;;;;;;5.43;1.50;;;28.40;99.90;;;;;;5056919;28;20155;-81
2023/08/21 11:55:45;;;;;;;12.02;1.83;;;29.00;99.90;;;;;;5075437;28;20055;-84
2023/08/21 11:58:12;;;;;;;6.63;1.50;;;28.70;99.90;;;;;;5074833;28;20041;-83
2023/08/21 12:00:39;;;;;;;5.53;1.63;;;28.40;99.90;;;;;;5074306;28;20044;-82
2023/08/21 12:03:08;;;;;;;5.93;1.70;;;28.30;99.90;;;;;;5057909;28;20036;-86
2023/08/21 12:05:35;;;;;;;7.03;1.63;;;29.00;99.90;;;;;;5041539;28;20060;-84
2023/08/21 12:08:04;;;;;;;6.63;1.80;;;29.30;99.90;;;;;;5074416;28;20071;-83
2023/08/21 12:10:30;;;;;;;5.55;1.63;;;29.30;99.90;;;;;;5057514;28;20083;-83
2023/08/21 12:12:57;;;;;;;6.93;1.70;;;28.70;99.90;;;;;;5056532;28;20040;-84
2023/08/21 12:15:24;;;;;;;7.07;1.85;;;28.70;99.90;;;;;;5057227;28;20376;-82
2023/08/21 12:17:52;;;;;;;6.72;1.90;;;29.20;99.90;;;;;;5074726;28;20060;-82
2023/08/21 12:20:19;;;;;;;5.80;1.60;;;29.40;99.90;;;;;;5039722;28;20048;-84
2023/08/21 12:22:45;;;;;;;5.70;1.75;;;29.70;99.90;;;;;;5057180;28;20052;-84
2023/08/21 12:25:13;;;;;;;6.85;2.08;;;29.80;99.90;;;;;;5075113;28;20043;-81
2023/08/21 12:27:39;;;;;;;6.53;2.00;;;29.90;99.90;;;;;;5066265;28;20045;-86
2023/08/21 12:30:07;;;;;;;7.15;2.40;;;30.10;99.90;;;;;;5050597;28;20178;-81
2023/08/21 12:32:34;;;;;;;5.13;2.13;;;30.50;99.90;;;;;;5074718;28;20128;-80
2023/08/21 12:35:00;;;;;;;7.22;3.10;;;30.20;99.90;;;;;;5056729;28;20060;-83
2023/08/21 12:37:28;;;;;;;8.13;2.78;;;30.40;99.90;;;;;;5074594;28;20079;-87
2023/08/21 12:39:55;;;;;;;8.18;3.00;;;30.80;99.90;;;;;;5055996;28;20036;-83
2023/08/21 12:42:21;;;;;;;7.20;3.17;;;31.50;99.90;;;;;;5049822;28;20091;-82
2023/08/21 12:44:48;;;;;;;9.85;3.72;;;31.10;99.90;;;;;;5067385;28;20486;-86
2023/08/21 12:47:15;;;;;;;6.88;3.33;;;30.80;99.90;;;;;;5062677;28;20113;-83
2023/08/21 12:49:41;;;;;;;5.95;2.78;;;30.50;99.90;;;;;;5099699;28;20039;-82
2023/08/21 12:52:08;;;;;;;7.78;3.65;;;30.80;99.90;;;;;;5101710;28;20451;-83